sensor_id;sensor_type;location;lat;lon;timestamp;temperature;humidity
53310;DHT22;39197;53.200;5.792;2022-08-19T00:02:04;16.60;99.90
53310;DHT22;39197;53.200;5.792;2022-08-19T00:04:33;16.50;99.90
53310;DHT22;39197;53.200;5.792;2022-08-19T00:07:04;16.50;99.90
53310;DHT22;39197;53.200;5.792;2022-08-19T00:09:31;16.50;99.90
53310;DHT22;39197;53.200;5.792;2022-08-19T00:11:58;16.40;99.90
53310;DHT22;39197;53.200;5.792;2022-08-19T00:14:25;16.40;99.90
53310;DHT22;39197;53.200;5.792;2022-08-19T00:16:52;16.40;99.90
53310;DHT22;39197;53.200;5.792;2022-08-19T00:19:20;16.40;99.90
53310;DHT22;39197;53.200;5.792;2022-08-19T00:21:46;16.30;99.90
53310;DHT22;39197;53.200;5.792;2022-08-19T00:24:13;16.30;99.90
53310;DHT22;39197;53.200;5.792;2022-08-19T00:26:41;16.30;99.90
53310;DHT22;39197;53.200;5.792;2022-08-19T00:29:09;16.30;99.90
53310;DHT22;39197;53.200;5.792;2022-08-19T00:31:35;16.20;99.90
53310;DHT22;39197;53.200;5.792;2022-08-19T00:34:01;16.20;99.90
53310;DHT22;39197;53.200;5.792;2022-08-19T00:36:28;16.20;99.90
53310;DHT22;39197;53.200;5.792;2022-08-19T00:38:54;16.10;99.90
53310;DHT22;39197;53.200;5.792;2022-08-19T00:41:23;16.10;99.90
53310;DHT22;39197;53.200;5.792;2022-08-19T00:44:09;16.10;99.90
53310;DHT22;39197;53.200;5.792;2022-08-19T00:46:38;16.10;99.90
53310;DHT22;39197;53.200;5.792;2022-08-19T00:49:13;16.10;99.90
53310;DHT22;39197;53.200;5.792;2022-08-19T00:51:41;16.10;99.90
53310;DHT22;39197;53.200;5.792;2022-08-19T00:54:08;16.10;99.90
53310;DHT22;39197;53.200;5.792;2022-08-19T00:56:34;16.10;99.90
53310;DHT22;39197;53.200;5.792;2022-08-19T00:59:01;16.10;99.90
53310;DHT22;39197;53.200;5.792;2022-08-19T01:01:27;16.10;99.90
53310;DHT22;39197;53.200;5.792;2022-08-19T01:03:53;16.10;99.90
53310;DHT22;39197;53.200;5.792;2022-08-19T01:06:18;16.10;99.90
53310;DHT22;39197;53.200;5.792;2022-08-19T01:08:44;16.10;99.90
53310;DHT22;39197;53.200;5.792;2022-08-19T01:11:10;16.10;99.90
53310;DHT22;39197;53.200;5.792;2022-08-19T01:13:37;16.00;99.90
53310;DHT22;39197;53.200;5.792;2022-08-19T01:16:07;16.10;99.90
53310;DHT22;39197;53.200;5.792;2022-08-19T01:18:38;16.10;99.90
53310;DHT22;39197;53.200;5.792;2022-08-19T01:21:12;16.10;99.90
53310;DHT22;39197;53.200;5.792;2022-08-19T01:23:43;16.00;99.90
53310;DHT22;39197;53.200;5.792;2022-08-19T01:26:12;16.00;99.90
53310;DHT22;39197;53.200;5.792;2022-08-19T01:28:39;16.00;99.90
53310;DHT22;39197;53.200;5.792;2022-08-19T01:31:06;16.00;99.90
53310;DHT22;39197;53.200;5.792;2022-08-19T01:33:32;16.00;99.90
53310;DHT22;39197;53.200;5.792;2022-08-19T01:36:10;16.00;99.90
53310;DHT22;39197;53.200;5.792;2022-08-19T01:38:38;16.00;99.90
53310;DHT22;39197;53.200;5.792;2022-08-19T01:41:05;16.00;99.90
53310;DHT22;39197;53.200;5.792;2022-08-19T01:43:32;16.00;99.90
53310;DHT22;39197;53.200;5.792;2022-08-19T01:45:58;16.00;99.90
53310;DHT22;39197;53.200;5.792;2022-08-19T01:48:23;16.00;99.90
53310;DHT22;39197;53.200;5.792;2022-08-19T01:50:49;16.00;99.90
53310;DHT22;39197;53.200;5.792;2022-08-19T01:53:15;16.00;99.90
53310;DHT22;39197;53.200;5.792;2022-08-19T01:55:42;16.00;99.90
53310;DHT22;39197;53.200;5.792;2022-08-19T01:58:20;16.00;99.90
53310;DHT22;39197;53.200;5.792;2022-08-19T02:00:47;15.90;99.90
53310;DHT22;39197;53.200;5.792;2022-08-19T02:03:13;15.90;99.90
53310;DHT22;39197;53.200;5.792;2022-08-19T02:05:39;15.80;99.90
53310;DHT22;39197;53.200;5.792;2022-08-19T02:08:06;15.80;99.90
53310;DHT22;39197;53.200;5.792;2022-08-19T02:10:31;15.80;99.90
53310;DHT22;39197;53.200;5.792;2022-08-19T02:12:57;15.80;99.90
53310;DHT22;39197;53.200;5.792;2022-08-19T02:15:23;15.80;99.90
53310;DHT22;39197;53.200;5.792;2022-08-19T02:17:51;15.80;99.90
53310;DHT22;39197;53.200;5.792;2022-08-19T02:20:17;15.70;99.90
53310;DHT22;39197;53.200;5.792;2022-08-19T02:22:43;15.70;99.90
53310;DHT22;39197;53.200;5.792;2022-08-19T02:25:10;15.70;99.90
53310;DHT22;39197;53.200;5.792;2022-08-19T02:27:36;15.60;99.90
53310;DHT22;39197;53.200;5.792;2022-08-19T02:30:04;15.60;99.90
53310;DHT22;39197;53.200;5.792;2022-08-19T02:32:30;15.60;99.90
53310;DHT22;39197;53.200;5.792;2022-08-19T02:34:56;15.60;99.90
53310;DHT22;39197;53.200;5.792;2022-08-19T02:37:21;15.50;99.90
53310;DHT22;39197;53.200;5.792;2022-08-19T02:40:06;15.60;99.90
53310;DHT22;39197;53.200;5.792;2022-08-19T02:42:32;15.50;99.90
53310;DHT22;39197;53.200;5.792;2022-08-19T02:44:58;15.50;99.90
53310;DHT22;39197;53.200;5.792;2022-08-19T02:47:23;15.50;99.90
53310;DHT22;39197;53.200;5.792;2022-08-19T02:49:49;15.50;99.90
53310;DHT22;39197;53.200;5.792;2022-08-19T02:52:15;15.50;99.90
53310;DHT22;39197;53.200;5.792;2022-08-19T02:54:41;15.50;99.90
53310;DHT22;39197;53.200;5.792;2022-08-19T02:57:06;15.50;99.90
53310;DHT22;39197;53.200;5.792;2022-08-19T02:59:33;15.50;99.90
53310;DHT22;39197;53.200;5.792;2022-08-19T03:01:59;15.50;99.90
53310;DHT22;39197;53.200;5.792;2022-08-19T03:04:25;15.50;99.90
53310;DHT22;39197;53.200;5.792;2022-08-19T03:06:50;15.50;99.90
53310;DHT22;39197;53.200;5.792;2022-08-19T03:09:18;15.50;99.90
53310;DHT22;39197;53.200;5.792;2022-08-19T03:11:44;15.50;99.90
53310;DHT22;39197;53.200;5.792;2022-08-19T03:14:11;15.50;99.90
53310;DHT22;39197;53.200;5.792;2022-08-19T03:16:46;15.50;99.90
53310;DHT22;39197;53.200;5.792;2022-08-19T03:19:13;15.50;99.90
53310;DHT22;39197;53.200;5.792;2022-08-19T03:21:43;15.50;99.90
53310;DHT22;39197;53.200;5.792;2022-08-19T03:24:13;15.50;99.90
53310;DHT22;39197;53.200;5.792;2022-08-19T03:26:45;15.50;99.90
53310;DHT22;39197;53.200;5.792;2022-08-19T03:29:11;15.50;99.90
53310;DHT22;39197;53.200;5.792;2022-08-19T03:31:38;15.40;99.90
53310;DHT22;39197;53.200;5.792;2022-08-19T03:34:04;15.40;99.90
53310;DHT22;39197;53.200;5.792;2022-08-19T03:36:30;15.40;99.90
53310;DHT22;39197;53.200;5.792;2022-08-19T03:38:58;15.40;99.90
53310;DHT22;39197;53.200;5.792;2022-08-19T03:41:30;15.40;99.90
53310;DHT22;39197;53.200;5.792;2022-08-19T03:43:57;15.40;99.90
53310;DHT22;39197;53.200;5.792;2022-08-19T03:46:28;15.30;99.90
53310;DHT22;39197;53.200;5.792;2022-08-19T03:48:56;15.30;99.90
53310;DHT22;39197;53.200;5.792;2022-08-19T03:51:41;15.30;99.90
53310;DHT22;39197;53.200;5.792;2022-08-19T03:54:09;15.30;99.90
53310;DHT22;39197;53.200;5.792;2022-08-19T03:56:37;15.30;99.90
53310;DHT22;39197;53.200;5.792;2022-08-19T03:59:05;15.30;99.90
53310;DHT22;39197;53.200;5.792;2022-08-19T04:01:31;15.30;99.90
53310;DHT22;39197;53.200;5.792;2022-08-19T04:03:58;15.30;99.90
53310;DHT22;39197;53.200;5.792;2022-08-19T04:06:29;15.30;99.90
53310;DHT22;39197;53.200;5.792;2022-08-19T04:08:56;15.30;99.90
53310;DHT22;39197;53.200;5.792;2022-08-19T04:11:29;15.30;99.90
53310;DHT22;39197;53.200;5.792;2022-08-19T04:13:55;15.20;99.90
53310;DHT22;39197;53.200;5.792;2022-08-19T04:16:24;15.20;99.90
53310;DHT22;39197;53.200;5.792;2022-08-19T04:18:50;15.20;99.90
53310;DHT22;39197;53.200;5.792;2022-08-19T04:21:21;15.20;99.90
53310;DHT22;39197;53.200;5.792;2022-08-19T04:23:47;15.20;99.90
53310;DHT22;39197;53.200;5.792;2022-08-19T04:26:14;15.20;99.90
53310;DHT22;39197;53.200;5.792;2022-08-19T04:28:41;15.20;99.90
53310;DHT22;39197;53.200;5.792;2022-08-19T04:31:16;15.20;99.90
53310;DHT22;39197;53.200;5.792;2022-08-19T04:33:42;15.30;99.90
53310;DHT22;39197;53.200;5.792;2022-08-19T04:36:15;15.30;99.90
53310;DHT22;39197;53.200;5.792;2022-08-19T04:38:42;15.30;99.90
53310;DHT22;39197;53.200;5.792;2022-08-19T04:41:07;15.30;99.90
53310;DHT22;39197;53.200;5.792;2022-08-19T04:43:51;15.30;99.90
53310;DHT22;39197;53.200;5.792;2022-08-19T04:46:17;15.30;99.90
53310;DHT22;39197;53.200;5.792;2022-08-19T04:48:45;15.30;99.90
53310;DHT22;39197;53.200;5.792;2022-08-19T04:51:11;15.30;99.90
53310;DHT22;39197;53.200;5.792;2022-08-19T04:53:39;15.30;99.90
53310;DHT22;39197;53.200;5.792;2022-08-19T04:58:34;15.30;99.90
53310;DHT22;39197;53.200;5.792;2022-08-19T05:01:00;15.40;99.90
53310;DHT22;39197;53.200;5.792;2022-08-19T05:03:26;15.40;99.90
53310;DHT22;39197;53.200;5.792;2022-08-19T05:05:52;15.40;99.90
53310;DHT22;39197;53.200;5.792;2022-08-19T05:08:20;15.40;99.90
53310;DHT22;39197;53.200;5.792;2022-08-19T05:10:50;15.40;99.90
53310;DHT22;39197;53.200;5.792;2022-08-19T05:13:18;15.40;99.90
53310;DHT22;39197;53.200;5.792;2022-08-19T05:15:54;15.50;99.90
53310;DHT22;39197;53.200;5.792;2022-08-19T05:18:19;15.50;99.90
53310;DHT22;39197;53.200;5.792;2022-08-19T05:21:12;15.50;99.90
53310;DHT22;39197;53.200;5.792;2022-08-19T05:23:56;15.50;99.90
53310;DHT22;39197;53.200;5.792;2022-08-19T05:26:23;15.50;99.90
53310;DHT22;39197;53.200;5.792;2022-08-19T05:28:48;15.60;99.90
53310;DHT22;39197;53.200;5.792;2022-08-19T05:31:14;15.60;99.90
53310;DHT22;39197;53.200;5.792;2022-08-19T05:33:39;15.70;99.90
53310;DHT22;39197;53.200;5.792;2022-08-19T05:36:05;15.70;99.90
53310;DHT22;39197;53.200;5.792;2022-08-19T05:38:34;15.80;99.90
53310;DHT22;39197;53.200;5.792;2022-08-19T05:41:01;15.90;99.90
53310;DHT22;39197;53.200;5.792;2022-08-19T05:43:31;15.90;99.90
53310;DHT22;39197;53.200;5.792;2022-08-19T05:45:56;15.90;99.90
53310;DHT22;39197;53.200;5.792;2022-08-19T05:48:22;16.00;99.90
53310;DHT22;39197;53.200;5.792;2022-08-19T05:50:47;16.00;99.90
53310;DHT22;39197;53.200;5.792;2022-08-19T05:53:16;16.00;99.90
53310;DHT22;39197;53.200;5.792;2022-08-19T05:55:42;16.10;99.90
53310;DHT22;39197;53.200;5.792;2022-08-19T05:58:07;16.20;99.90
53310;DHT22;39197;53.200;5.792;2022-08-19T06:00:34;16.30;99.90
53310;DHT22;39197;53.200;5.792;2022-08-19T06:03:00;16.40;99.90
53310;DHT22;39197;53.200;5.792;2022-08-19T06:05:29;16.50;99.90
53310;DHT22;39197;53.200;5.792;2022-08-19T06:07:55;16.50;99.90
53310;DHT22;39197;53.200;5.792;2022-08-19T06:10:20;16.60;99.90
53310;DHT22;39197;53.200;5.792;2022-08-19T06:12:47;16.70;99.90
53310;DHT22;39197;53.200;5.792;2022-08-19T06:15:14;16.70;99.90
53310;DHT22;39197;53.200;5.792;2022-08-19T06:17:40;16.80;99.90
53310;DHT22;39197;53.200;5.792;2022-08-19T06:20:11;16.90;99.90
53310;DHT22;39197;53.200;5.792;2022-08-19T06:22:43;16.90;99.90
53310;DHT22;39197;53.200;5.792;2022-08-19T06:25:10;17.00;99.90
53310;DHT22;39197;53.200;5.792;2022-08-19T06:27:36;17.10;99.90
53310;DHT22;39197;53.200;5.792;2022-08-19T06:30:03;17.20;99.90
53310;DHT22;39197;53.200;5.792;2022-08-19T06:32:29;17.20;99.90
53310;DHT22;39197;53.200;5.792;2022-08-19T06:34:55;17.30;99.90
53310;DHT22;39197;53.200;5.792;2022-08-19T06:37:21;17.40;99.90
53310;DHT22;39197;53.200;5.792;2022-08-19T06:39:47;17.40;99.90
53310;DHT22;39197;53.200;5.792;2022-08-19T06:42:13;17.50;99.90
53310;DHT22;39197;53.200;5.792;2022-08-19T06:44:42;17.60;99.90
53310;DHT22;39197;53.200;5.792;2022-08-19T06:47:11;17.70;99.90
53310;DHT22;39197;53.200;5.792;2022-08-19T06:49:37;17.70;99.90
53310;DHT22;39197;53.200;5.792;2022-08-19T06:52:04;17.90;99.90
53310;DHT22;39197;53.200;5.792;2022-08-19T06:54:31;18.00;99.90
53310;DHT22;39197;53.200;5.792;2022-08-19T06:56:58;18.10;99.90
53310;DHT22;39197;53.200;5.792;2022-08-19T06:59:27;18.20;99.90
53310;DHT22;39197;53.200;5.792;2022-08-19T07:01:55;18.50;99.90
53310;DHT22;39197;53.200;5.792;2022-08-19T07:04:27;18.70;99.90
53310;DHT22;39197;53.200;5.792;2022-08-19T07:07:04;19.30;99.90
53310;DHT22;39197;53.200;5.792;2022-08-19T07:09:31;19.80;99.90
53310;DHT22;39197;53.200;5.792;2022-08-19T07:11:57;20.00;99.90
53310;DHT22;39197;53.200;5.792;2022-08-19T07:14:25;19.90;99.90
53310;DHT22;39197;53.200;5.792;2022-08-19T07:16:52;19.80;99.90
53310;DHT22;39197;53.200;5.792;2022-08-19T07:19:20;19.80;99.90
53310;DHT22;39197;53.200;5.792;2022-08-19T07:21:48;20.00;99.90
53310;DHT22;39197;53.200;5.792;2022-08-19T07:24:15;20.50;99.90
53310;DHT22;39197;53.200;5.792;2022-08-19T07:26:42;21.00;99.90
53310;DHT22;39197;53.200;5.792;2022-08-19T07:29:09;21.20;99.90
53310;DHT22;39197;53.200;5.792;2022-08-19T07:31:35;21.50;99.90
53310;DHT22;39197;53.200;5.792;2022-08-19T07:34:03;21.70;99.90
53310;DHT22;39197;53.200;5.792;2022-08-19T07:36:33;21.90;99.90
53310;DHT22;39197;53.200;5.792;2022-08-19T07:39:01;22.10;99.90
53310;DHT22;39197;53.200;5.792;2022-08-19T07:41:29;22.40;99.90
53310;DHT22;39197;53.200;5.792;2022-08-19T07:43:56;22.40;99.90
53310;DHT22;39197;53.200;5.792;2022-08-19T07:46:21;22.80;99.90
53310;DHT22;39197;53.200;5.792;2022-08-19T07:48:49;22.70;99.90
53310;DHT22;39197;53.200;5.792;2022-08-19T07:51:18;22.50;99.90
53310;DHT22;39197;53.200;5.792;2022-08-19T07:53:45;22.60;99.90
53310;DHT22;39197;53.200;5.792;2022-08-19T07:56:13;22.80;99.90
53310;DHT22;39197;53.200;5.792;2022-08-19T07:58:42;23.00;99.90
53310;DHT22;39197;53.200;5.792;2022-08-19T08:01:10;23.20;99.90
53310;DHT22;39197;53.200;5.792;2022-08-19T08:03:36;23.30;99.90
53310;DHT22;39197;53.200;5.792;2022-08-19T08:06:21;23.30;99.90
53310;DHT22;39197;53.200;5.792;2022-08-19T08:09:06;23.30;99.90
53310;DHT22;39197;53.200;5.792;2022-08-19T08:12:06;23.50;99.90
53310;DHT22;39197;53.200;5.792;2022-08-19T08:14:37;23.70;99.90
53310;DHT22;39197;53.200;5.792;2022-08-19T08:17:05;23.80;99.90
53310;DHT22;39197;53.200;5.792;2022-08-19T08:19:32;23.80;99.90
53310;DHT22;39197;53.200;5.792;2022-08-19T08:22:00;24.00;99.90
53310;DHT22;39197;53.200;5.792;2022-08-19T08:24:28;24.20;99.90
53310;DHT22;39197;53.200;5.792;2022-08-19T08:26:57;24.40;99.90
53310;DHT22;39197;53.200;5.792;2022-08-19T08:29:27;24.70;99.90
53310;DHT22;39197;53.200;5.792;2022-08-19T08:31:53;24.70;99.90
53310;DHT22;39197;53.200;5.792;2022-08-19T08:34:20;24.70;99.90
53310;DHT22;39197;53.200;5.792;2022-08-19T08:36:47;24.60;99.90
53310;DHT22;39197;53.200;5.792;2022-08-19T08:39:17;24.30;99.90
53310;DHT22;39197;53.200;5.792;2022-08-19T08:41:50;24.20;99.90
53310;DHT22;39197;53.200;5.792;2022-08-19T08:44:39;24.30;99.90
53310;DHT22;39197;53.200;5.792;2022-08-19T08:47:12;24.40;99.90
53310;DHT22;39197;53.200;5.792;2022-08-19T08:49:50;24.50;99.90
53310;DHT22;39197;53.200;5.792;2022-08-19T08:52:31;24.80;99.90
53310;DHT22;39197;53.200;5.792;2022-08-19T08:55:07;25.20;99.90
53310;DHT22;39197;53.200;5.792;2022-08-19T08:57:48;25.00;99.90
53310;DHT22;39197;53.200;5.792;2022-08-19T09:00:34;24.90;99.90
53310;DHT22;39197;53.200;5.792;2022-08-19T09:03:00;25.10;99.90
53310;DHT22;39197;53.200;5.792;2022-08-19T09:05:40;25.30;99.90
53310;DHT22;39197;53.200;5.792;2022-08-19T09:10:55;25.80;99.90
53310;DHT22;39197;53.200;5.792;2022-08-19T09:13:42;26.20;99.90
53310;DHT22;39197;53.200;5.792;2022-08-19T09:16:20;26.60;99.90
53310;DHT22;39197;53.200;5.792;2022-08-19T09:18:51;26.60;99.90
53310;DHT22;39197;53.200;5.792;2022-08-19T09:21:19;26.70;99.90
53310;DHT22;39197;53.200;5.792;2022-08-19T09:23:46;26.40;99.90
53310;DHT22;39197;53.200;5.792;2022-08-19T09:26:17;26.10;99.90
53310;DHT22;39197;53.200;5.792;2022-08-19T09:28:44;26.40;99.90
53310;DHT22;39197;53.200;5.792;2022-08-19T09:31:16;26.60;99.90
53310;DHT22;39197;53.200;5.792;2022-08-19T09:33:42;27.20;99.90
53310;DHT22;39197;53.200;5.792;2022-08-19T09:36:13;27.20;99.90
53310;DHT22;39197;53.200;5.792;2022-08-19T09:38:40;27.20;99.90
53310;DHT22;39197;53.200;5.792;2022-08-19T09:41:09;26.90;99.90
53310;DHT22;39197;53.200;5.792;2022-08-19T09:43:37;26.60;99.90
53310;DHT22;39197;53.200;5.792;2022-08-19T09:46:05;26.70;99.90
53310;DHT22;39197;53.200;5.792;2022-08-19T09:48:37;27.00;99.90
53310;DHT22;39197;53.200;5.792;2022-08-19T09:51:10;27.50;99.90
53310;DHT22;39197;53.200;5.792;2022-08-19T09:53:37;27.60;99.90
53310;DHT22;39197;53.200;5.792;2022-08-19T09:56:05;27.30;99.90
53310;DHT22;39197;53.200;5.792;2022-08-19T09:58:32;27.40;99.90
53310;DHT22;39197;53.200;5.792;2022-08-19T10:00:58;27.50;99.90
53310;DHT22;39197;53.200;5.792;2022-08-19T10:03:26;27.70;99.90
53310;DHT22;39197;53.200;5.792;2022-08-19T10:05:53;27.50;99.90
53310;DHT22;39197;53.200;5.792;2022-08-19T10:08:22;27.10;99.90
53310;DHT22;39197;53.200;5.792;2022-08-19T10:10:48;27.20;99.90
53310;DHT22;39197;53.200;5.792;2022-08-19T10:13:17;27.30;99.90
53310;DHT22;39197;53.200;5.792;2022-08-19T10:15:43;27.70;99.90
53310;DHT22;39197;53.200;5.792;2022-08-19T10:18:09;28.00;99.90
53310;DHT22;39197;53.200;5.792;2022-08-19T10:20:35;28.10;99.90
53310;DHT22;39197;53.200;5.792;2022-08-19T10:23:02;28.10;99.90
53310;DHT22;39197;53.200;5.792;2022-08-19T10:25:28;27.60;99.90
53310;DHT22;39197;53.200;5.792;2022-08-19T10:27:54;27.10;99.90
53310;DHT22;39197;53.200;5.792;2022-08-19T10:30:20;27.00;99.90
53310;DHT22;39197;53.200;5.792;2022-08-19T10:32:46;27.00;99.90
53310;DHT22;39197;53.200;5.792;2022-08-19T10:35:13;26.90;99.90
53310;DHT22;39197;53.200;5.792;2022-08-19T10:37:39;26.70;99.90
53310;DHT22;39197;53.200;5.792;2022-08-19T10:40:07;26.60;99.90
53310;DHT22;39197;53.200;5.792;2022-08-19T10:42:34;26.70;99.90
53310;DHT22;39197;53.200;5.792;2022-08-19T10:45:01;26.40;99.90
53310;DHT22;39197;53.200;5.792;2022-08-19T10:47:27;26.00;99.90
53310;DHT22;39197;53.200;5.792;2022-08-19T10:49:54;25.90;99.90
53310;DHT22;39197;53.200;5.792;2022-08-19T10:52:44;26.50;99.90
53310;DHT22;39197;53.200;5.792;2022-08-19T10:55:11;26.60;99.90
53310;DHT22;39197;53.200;5.792;2022-08-19T10:57:56;26.50;99.90
53310;DHT22;39197;53.200;5.792;2022-08-19T11:00:23;26.00;99.90
53310;DHT22;39197;53.200;5.792;2022-08-19T11:02:51;25.70;99.90
53310;DHT22;39197;53.200;5.792;2022-08-19T11:05:17;25.40;99.90
53310;DHT22;39197;53.200;5.792;2022-08-19T11:07:43;25.30;99.90
53310;DHT22;39197;53.200;5.792;2022-08-19T11:10:12;25.20;99.90
53310;DHT22;39197;53.200;5.792;2022-08-19T11:12:39;25.30;99.90
53310;DHT22;39197;53.200;5.792;2022-08-19T11:15:09;25.90;99.90
53310;DHT22;39197;53.200;5.792;2022-08-19T11:17:40;26.50;99.90
53310;DHT22;39197;53.200;5.792;2022-08-19T11:20:07;26.90;99.90
53310;DHT22;39197;53.200;5.792;2022-08-19T11:22:33;27.20;99.90
53310;DHT22;39197;53.200;5.792;2022-08-19T11:24:59;27.20;99.90
53310;DHT22;39197;53.200;5.792;2022-08-19T11:27:25;27.20;99.90
53310;DHT22;39197;53.200;5.792;2022-08-19T11:29:50;27.50;99.90
53310;DHT22;39197;53.200;5.792;2022-08-19T11:32:18;27.10;99.90
53310;DHT22;39197;53.200;5.792;2022-08-19T11:34:43;27.30;99.90
53310;DHT22;39197;53.200;5.792;2022-08-19T11:37:09;27.40;99.90
53310;DHT22;39197;53.200;5.792;2022-08-19T11:39:36;27.10;99.90
53310;DHT22;39197;53.200;5.792;2022-08-19T11:42:04;26.90;99.90
53310;DHT22;39197;53.200;5.792;2022-08-19T11:44:50;26.70;99.90
53310;DHT22;39197;53.200;5.792;2022-08-19T11:47:16;26.70;99.90
53310;DHT22;39197;53.200;5.792;2022-08-19T11:49:42;27.00;99.90
53310;DHT22;39197;53.200;5.792;2022-08-19T11:52:08;26.70;99.90
53310;DHT22;39197;53.200;5.792;2022-08-19T11:54:34;27.20;99.90
53310;DHT22;39197;53.200;5.792;2022-08-19T11:57:02;27.50;99.90
53310;DHT22;39197;53.200;5.792;2022-08-19T11:59:28;27.60;99.90
53310;DHT22;39197;53.200;5.792;2022-08-19T12:01:54;28.00;99.90
53310;DHT22;39197;53.200;5.792;2022-08-19T12:04:22;28.00;99.90
53310;DHT22;39197;53.200;5.792;2022-08-19T12:06:48;28.10;99.90
53310;DHT22;39197;53.200;5.792;2022-08-19T12:09:15;28.30;99.90
53310;DHT22;39197;53.200;5.792;2022-08-19T12:11:43;28.30;99.90
53310;DHT22;39197;53.200;5.792;2022-08-19T12:14:13;28.10;99.90
53310;DHT22;39197;53.200;5.792;2022-08-19T12:16:39;28.50;99.90
53310;DHT22;39197;53.200;5.792;2022-08-19T12:19:06;28.20;99.90
53310;DHT22;39197;53.200;5.792;2022-08-19T12:21:33;28.10;99.90
53310;DHT22;39197;53.200;5.792;2022-08-19T12:24:00;28.00;99.90
53310;DHT22;39197;53.200;5.792;2022-08-19T12:26:28;27.80;99.90
53310;DHT22;39197;53.200;5.792;2022-08-19T12:28:55;27.80;99.90
53310;DHT22;39197;53.200;5.792;2022-08-19T12:31:21;28.10;99.90
53310;DHT22;39197;53.200;5.792;2022-08-19T12:33:47;28.10;99.90
53310;DHT22;39197;53.200;5.792;2022-08-19T12:36:14;28.40;99.90
53310;DHT22;39197;53.200;5.792;2022-08-19T12:38:41;28.10;99.90
53310;DHT22;39197;53.200;5.792;2022-08-19T12:41:10;27.90;99.90
53310;DHT22;39197;53.200;5.792;2022-08-19T12:43:36;27.40;99.90
53310;DHT22;39197;53.200;5.792;2022-08-19T12:46:04;27.20;99.90
53310;DHT22;39197;53.200;5.792;2022-08-19T12:48:31;27.10;99.90
53310;DHT22;39197;53.200;5.792;2022-08-19T12:50:57;26.90;99.90
53310;DHT22;39197;53.200;5.792;2022-08-19T12:53:22;27.00;99.90
53310;DHT22;39197;53.200;5.792;2022-08-19T12:55:55;27.10;99.90
53310;DHT22;39197;53.200;5.792;2022-08-19T12:58:21;27.20;99.90
53310;DHT22;39197;53.200;5.792;2022-08-19T13:00:47;27.00;99.90
53310;DHT22;39197;53.200;5.792;2022-08-19T13:03:14;27.30;99.90
53310;DHT22;39197;53.200;5.792;2022-08-19T13:05:41;27.50;99.90
53310;DHT22;39197;53.200;5.792;2022-08-19T13:08:06;27.60;99.90
53310;DHT22;39197;53.200;5.792;2022-08-19T13:10:34;27.40;99.90
53310;DHT22;39197;53.200;5.792;2022-08-19T13:13:01;27.00;99.90
53310;DHT22;39197;53.200;5.792;2022-08-19T13:15:27;26.80;99.90
53310;DHT22;39197;53.200;5.792;2022-08-19T13:17:55;26.60;99.90
53310;DHT22;39197;53.200;5.792;2022-08-19T13:20:21;26.60;99.90
53310;DHT22;39197;53.200;5.792;2022-08-19T13:22:47;26.40;99.90
53310;DHT22;39197;53.200;5.792;2022-08-19T13:25:14;26.30;99.90
53310;DHT22;39197;53.200;5.792;2022-08-19T13:27:42;26.30;99.90
53310;DHT22;39197;53.200;5.792;2022-08-19T13:30:10;26.20;99.90
53310;DHT22;39197;53.200;5.792;2022-08-19T13:32:55;26.00;99.90
53310;DHT22;39197;53.200;5.792;2022-08-19T13:35:49;25.90;99.90
53310;DHT22;39197;53.200;5.792;2022-08-19T13:38:20;26.00;99.90
53310;DHT22;39197;53.200;5.792;2022-08-19T13:40:46;26.40;99.90
53310;DHT22;39197;53.200;5.792;2022-08-19T13:43:13;26.90;99.90
53310;DHT22;39197;53.200;5.792;2022-08-19T13:45:39;26.80;99.90
53310;DHT22;39197;53.200;5.792;2022-08-19T13:48:06;26.70;99.90
53310;DHT22;39197;53.200;5.792;2022-08-19T13:50:42;27.30;99.90
53310;DHT22;39197;53.200;5.792;2022-08-19T13:53:09;28.10;99.90
53310;DHT22;39197;53.200;5.792;2022-08-19T13:55:40;28.50;99.90
53310;DHT22;39197;53.200;5.792;2022-08-19T13:58:06;28.30;99.90
53310;DHT22;39197;53.200;5.792;2022-08-19T14:00:42;27.80;99.90
53310;DHT22;39197;53.200;5.792;2022-08-19T14:03:09;27.40;99.90
53310;DHT22;39197;53.200;5.792;2022-08-19T14:05:35;27.30;99.90
53310;DHT22;39197;53.200;5.792;2022-08-19T14:08:01;26.80;99.90
53310;DHT22;39197;53.200;5.792;2022-08-19T14:10:27;26.60;99.90
53310;DHT22;39197;53.200;5.792;2022-08-19T14:12:59;26.70;99.90
53310;DHT22;39197;53.200;5.792;2022-08-19T14:15:26;26.70;99.90
53310;DHT22;39197;53.200;5.792;2022-08-19T14:17:52;26.50;99.90
53310;DHT22;39197;53.200;5.792;2022-08-19T14:20:18;26.70;99.90
53310;DHT22;39197;53.200;5.792;2022-08-19T14:22:45;27.00;99.90
53310;DHT22;39197;53.200;5.792;2022-08-19T14:25:17;27.30;99.90
53310;DHT22;39197;53.200;5.792;2022-08-19T14:27:43;27.90;99.90
53310;DHT22;39197;53.200;5.792;2022-08-19T14:30:11;27.40;99.90
53310;DHT22;39197;53.200;5.792;2022-08-19T14:32:39;27.50;99.90
53310;DHT22;39197;53.200;5.792;2022-08-19T14:35:05;28.00;99.90
53310;DHT22;39197;53.200;5.792;2022-08-19T14:37:33;27.90;99.90
53310;DHT22;39197;53.200;5.792;2022-08-19T14:39:59;28.10;99.90
53310;DHT22;39197;53.200;5.792;2022-08-19T14:42:25;27.90;99.90
53310;DHT22;39197;53.200;5.792;2022-08-19T14:44:50;28.00;99.90
53310;DHT22;39197;53.200;5.792;2022-08-19T14:47:16;27.70;99.90
53310;DHT22;39197;53.200;5.792;2022-08-19T14:49:42;27.50;99.90
53310;DHT22;39197;53.200;5.792;2022-08-19T14:52:07;27.30;99.90
53310;DHT22;39197;53.200;5.792;2022-08-19T14:54:34;27.60;99.90
53310;DHT22;39197;53.200;5.792;2022-08-19T14:57:00;27.60;99.90
53310;DHT22;39197;53.200;5.792;2022-08-19T14:59:25;28.00;99.90
53310;DHT22;39197;53.200;5.792;2022-08-19T15:01:51;28.00;99.90
53310;DHT22;39197;53.200;5.792;2022-08-19T15:04:16;28.10;99.90
53310;DHT22;39197;53.200;5.792;2022-08-19T15:06:42;28.20;99.90
53310;DHT22;39197;53.200;5.792;2022-08-19T15:09:08;28.20;99.90
53310;DHT22;39197;53.200;5.792;2022-08-19T15:11:34;28.20;99.90
53310;DHT22;39197;53.200;5.792;2022-08-19T15:14:01;28.10;99.90
53310;DHT22;39197;53.200;5.792;2022-08-19T15:16:27;28.00;99.90
53310;DHT22;39197;53.200;5.792;2022-08-19T15:18:55;28.00;99.90
53310;DHT22;39197;53.200;5.792;2022-08-19T15:21:23;27.80;99.90
53310;DHT22;39197;53.200;5.792;2022-08-19T15:23:50;27.50;99.90
53310;DHT22;39197;53.200;5.792;2022-08-19T15:26:17;27.10;99.90
53310;DHT22;39197;53.200;5.792;2022-08-19T15:28:44;27.20;99.90
53310;DHT22;39197;53.200;5.792;2022-08-19T15:31:10;27.40;99.90
53310;DHT22;39197;53.200;5.792;2022-08-19T15:33:38;27.30;99.90
53310;DHT22;39197;53.200;5.792;2022-08-19T15:36:06;27.20;99.90
53310;DHT22;39197;53.200;5.792;2022-08-19T15:38:33;26.50;99.90
53310;DHT22;39197;53.200;5.792;2022-08-19T15:41:00;26.30;99.90
53310;DHT22;39197;53.200;5.792;2022-08-19T15:43:47;26.00;99.90